Time;durP1;ratioP1;P1;durP2;ratioP2;P2;SDS_P1;SDS_P2;PMS_P1;PMS_P2;Temp;Humidity;BMP_temperature;BMP_pressure;BME280_temperature;BME280_humidity;BME280_pressure;Samples;Min_cycle;Max_cycle;Signal;HPM_P1;HPM_P2
2023/07/28 00:02:11;;;;;;;4.20;3.80;;;15.70;99.90;;;;;;5050798;28;20312;-32
2023/07/28 00:04:37;;;;;;;4.83;3.57;;;15.70;99.90;;;;;;5050780;28;20249;-31
2023/07/28 00:07:04;;;;;;;6.27;3.63;;;15.70;99.90;;;;;;5055663;28;20193;-30
2023/07/28 00:09:30;;;;;;;3.70;3.30;;;15.80;99.90;;;;;;5069946;28;20200;-30
2023/07/28 00:12:00;;;;;;;4.67;3.47;;;15.80;99.90;;;;;;5070290;28;20186;-30
2023/07/28 00:14:27;;;;;;;5.60;3.13;;;15.80;99.90;;;;;;5067101;28;20174;-30
2023/07/28 00:16:56;;;;;;;4.40;3.30;;;15.90;99.90;;;;;;5055937;28;20228;-30
2023/07/28 00:19:23;;;;;;;3.90;3.30;;;15.90;99.90;;;;;;5050637;28;20198;-31
2023/07/28 00:21:49;;;;;;;3.70;3.30;;;15.90;99.90;;;;;;5050081;28;20221;-30
2023/07/28 00:24:16;;;;;;;3.40;3.10;;;15.90;99.90;;;;;;5049434;28;20232;-30
2023/07/28 00:26:42;;;;;;;3.33;3.03;;;15.90;99.90;;;;;;5060377;28;20228;-31
2023/07/28 00:29:08;;;;;;;3.30;3.00;;;15.80;99.90;;;;;;5063606;28;20201;-30
2023/07/28 00:31:35;;;;;;;3.10;2.80;;;15.80;99.90;;;;;;5068749;28;20209;-31
2023/07/28 00:34:02;;;;;;;3.93;3.50;;;15.80;99.90;;;;;;5067056;28;20177;-30
2023/07/28 00:36:30;;;;;;;4.70;3.27;;;15.70;99.90;;;;;;5051981;28;20213;-31
2023/07/28 00:38:56;;;;;;;3.57;2.83;;;15.70;99.90;;;;;;5050107;28;20205;-31
2023/07/28 00:41:22;;;;;;;5.10;3.03;;;15.70;99.90;;;;;;5050447;28;20202;-31
2023/07/28 00:43:48;;;;;;;6.87;3.77;;;15.60;99.90;;;;;;5049847;28;20162;-31
2023/07/28 00:46:15;;;;;;;4.63;3.50;;;15.60;99.90;;;;;;5049747;28;20180;-30
2023/07/28 00:48:41;;;;;;;4.23;3.40;;;15.60;99.90;;;;;;5051623;28;20201;-30
2023/07/28 00:51:08;;;;;;;4.77;3.23;;;15.60;99.90;;;;;;5061202;28;20197;-31
2023/07/28 00:53:34;;;;;;;4.97;3.50;;;15.50;99.90;;;;;;5049574;28;20189;-32
2023/07/28 00:56:01;;;;;;;3.50;3.20;;;15.50;99.90;;;;;;5049540;28;20231;-30
2023/07/28 00:58:28;;;;;;;4.97;3.40;;;15.50;99.90;;;;;;5034170;28;20652;-30
2023/07/28 01:00:54;;;;;;;3.93;3.50;;;15.50;99.90;;;;;;5058727;28;20202;-31
2023/07/28 01:03:21;;;;;;;5.23;3.43;;;15.50;99.90;;;;;;5049831;28;20185;-31
2023/07/28 01:06:02;;;;;;;5.03;3.10;;;15.50;99.90;;;;;;5045490;28;20205;-30
2023/07/28 01:08:37;;;;;;;5.73;3.07;;;15.50;99.90;;;;;;5049825;28;20177;-31
2023/07/28 01:11:03;;;;;;;3.33;2.90;;;15.40;99.90;;;;;;5050474;28;20196;-31
2023/07/28 01:13:28;;;;;;;3.57;3.07;;;15.40;99.90;;;;;;5044372;28;20199;-30
2023/07/28 01:15:54;;;;;;;5.03;3.30;;;15.30;99.90;;;;;;5036421;28;20201;-30
2023/07/28 01:18:20;;;;;;;3.50;3.13;;;15.30;99.90;;;;;;5040633;28;20185;-31
2023/07/28 01:20:47;;;;;;;4.80;3.70;;;15.30;99.90;;;;;;5054055;28;20216;-31
2023/07/28 01:23:51;;;;;;;4.87;3.13;;;15.30;99.90;;;;;;5057631;28;20227;-31
2023/07/28 01:26:26;;;;;;;3.90;3.17;;;15.20;99.90;;;;;;5048509;28;20185;-30
2023/07/28 01:28:52;;;;;;;8.20;3.50;;;15.20;99.90;;;;;;5052557;28;20208;-31
2023/07/28 01:31:18;;;;;;;5.93;3.43;;;15.10;99.90;;;;;;5060541;28;20185;-31
2023/07/28 01:33:44;;;;;;;3.17;2.87;;;15.10;99.90;;;;;;5054271;28;20174;-31
2023/07/28 01:36:10;;;;;;;4.73;3.60;;;15.10;99.90;;;;;;5064117;28;20661;-31
2023/07/28 01:38:36;;;;;;;3.40;3.10;;;15.00;99.90;;;;;;5070213;28;20201;-30
2023/07/28 01:41:02;;;;;;;4.47;3.33;;;14.90;99.90;;;;;;5054674;28;20332;-30
2023/07/28 01:43:28;;;;;;;4.20;3.40;;;15.00;99.90;;;;;;5052545;28;20174;-31
2023/07/28 01:45:53;;;;;;;5.10;3.87;;;14.90;99.90;;;;;;5052420;28;20196;-31
2023/07/28 01:48:19;;;;;;;4.53;3.43;;;14.90;99.90;;;;;;5052200;28;20187;-31
2023/07/28 01:50:45;;;;;;;4.57;3.93;;;14.90;99.90;;;;;;5067088;28;20178;-30
2023/07/28 01:53:11;;;;;;;4.03;3.63;;;14.70;99.90;;;;;;5054354;28;20182;-30
2023/07/28 01:55:37;;;;;;;3.97;3.47;;;14.70;99.90;;;;;;5039562;28;20186;-30
2023/07/28 01:58:04;;;;;;;4.77;3.33;;;14.70;99.90;;;;;;5052848;28;20182;-30
2023/07/28 02:00:30;;;;;;;5.00;3.43;;;14.80;99.90;;;;;;5040631;28;20201;-30
2023/07/28 02:02:57;;;;;;;5.50;3.30;;;14.80;99.90;;;;;;5051710;28;20241;-30
2023/07/28 02:05:24;;;;;;;4.87;3.70;;;14.80;99.90;;;;;;5074218;28;20184;-30
2023/07/28 02:07:49;;;;;;;3.90;3.50;;;14.90;99.90;;;;;;5047440;28;20174;-32
2023/07/28 02:10:15;;;;;;;3.97;3.57;;;14.80;99.90;;;;;;5062355;28;20200;-31
2023/07/28 02:12:41;;;;;;;3.50;3.20;;;14.90;99.90;;;;;;5049903;28;20192;-30
2023/07/28 02:15:08;;;;;;;3.90;3.53;;;14.90;99.90;;;;;;5052169;28;20190;-30
2023/07/28 02:17:34;;;;;;;4.77;3.10;;;14.80;99.90;;;;;;5040718;28;20178;-30
2023/07/28 02:20:03;;;;;;;3.90;3.27;;;14.80;99.90;;;;;;5052632;28;20240;-30
2023/07/28 02:22:29;;;;;;;3.80;3.30;;;14.80;99.90;;;;;;5064148;28;20188;-32
2023/07/28 02:24:55;;;;;;;3.93;3.00;;;14.80;99.90;;;;;;5040449;28;20267;-31
2023/07/28 02:27:21;;;;;;;4.63;3.70;;;14.80;99.90;;;;;;5059700;28;20192;-31
2023/07/28 02:29:47;;;;;;;4.33;3.13;;;14.70;99.90;;;;;;5044345;28;20261;-32
2023/07/28 02:32:13;;;;;;;3.47;3.13;;;14.70;99.90;;;;;;5049215;28;20181;-32
2023/07/28 02:34:39;;;;;;;5.47;4.00;;;14.60;99.90;;;;;;5060760;28;20210;-31
2023/07/28 02:37:05;;;;;;;3.80;3.40;;;14.60;99.90;;;;;;5051664;28;20200;-31
2023/07/28 02:39:31;;;;;;;5.53;3.47;;;14.60;99.90;;;;;;5070838;28;20212;-31
2023/07/28 02:41:57;;;;;;;3.97;3.53;;;14.70;99.90;;;;;;5055323;28;20273;-32
2023/07/28 02:44:22;;;;;;;4.03;3.63;;;14.60;99.90;;;;;;5049187;28;20208;-31
2023/07/28 02:46:48;;;;;;;6.00;3.57;;;14.60;99.90;;;;;;5054117;28;20173;-31
2023/07/28 02:49:14;;;;;;;3.70;3.17;;;14.40;99.90;;;;;;5051593;28;20205;-31
2023/07/28 02:51:41;;;;;;;4.20;3.20;;;14.40;99.90;;;;;;5065057;28;20177;-31
2023/07/28 02:54:07;;;;;;;3.50;3.20;;;14.40;99.90;;;;;;5054209;28;20181;-31
2023/07/28 02:56:37;;;;;;;3.50;3.20;;;14.40;99.90;;;;;;5036451;28;20188;-31
2023/07/28 02:59:04;;;;;;;6.90;3.50;;;14.40;99.90;;;;;;5062947;28;20224;-32
2023/07/28 03:01:33;;;;;;;4.70;3.30;;;14.40;99.90;;;;;;5058627;28;20206;-32
2023/07/28 03:04:02;;;;;;;3.40;3.00;;;14.40;99.90;;;;;;5048539;28;20197;-31
2023/07/28 03:06:33;;;;;;;5.93;3.50;;;14.40;99.90;;;;;;5047321;28;20170;-32
2023/07/28 03:08:59;;;;;;;4.33;3.17;;;14.30;99.90;;;;;;5062722;28;20209;-32
2023/07/28 03:11:43;;;;;;;4.40;3.10;;;14.30;99.90;;;;;;5071468;28;20235;-32
2023/07/28 03:14:09;;;;;;;4.87;3.50;;;14.30;99.90;;;;;;5049413;28;20213;-31
2023/07/28 03:16:35;;;;;;;4.13;3.20;;;14.30;99.90;;;;;;5049801;28;20201;-31
2023/07/28 03:19:01;;;;;;;4.93;3.40;;;14.30;99.90;;;;;;5051211;28;20211;-32
2023/07/28 03:21:31;;;;;;;3.90;3.43;;;14.40;99.90;;;;;;5063041;28;20213;-32
2023/07/28 03:23:56;;;;;;;4.63;3.20;;;14.40;99.90;;;;;;5063792;28;20184;-32
2023/07/28 03:26:22;;;;;;;5.87;3.30;;;14.50;99.90;;;;;;5051539;28;20177;-31
2023/07/28 03:28:48;;;;;;;5.07;3.40;;;14.60;99.90;;;;;;5055956;28;20239;-32
2023/07/28 03:31:14;;;;;;;5.03;4.27;;;14.60;99.90;;;;;;5066540;28;20184;-31
2023/07/28 03:33:40;;;;;;;3.60;3.27;;;14.70;99.90;;;;;;5067491;28;20239;-32
2023/07/28 03:36:06;;;;;;;3.50;3.20;;;14.80;99.90;;;;;;5063459;28;20177;-31
2023/07/28 03:38:33;;;;;;;4.03;3.00;;;14.90;99.90;;;;;;5069504;28;20200;-31
2023/07/28 03:40:59;;;;;;;4.87;3.00;;;14.90;99.90;;;;;;5063058;28;20207;-31
2023/07/28 03:43:25;;;;;;;4.07;3.10;;;14.90;99.90;;;;;;5069527;28;20184;-32
2023/07/28 03:45:51;;;;;;;4.50;3.30;;;14.90;99.90;;;;;;5063216;28;20174;-32
2023/07/28 03:48:17;;;;;;;3.50;3.00;;;14.90;99.90;;;;;;5047505;28;20181;-32
2023/07/28 03:50:43;;;;;;;4.20;3.03;;;15.00;99.90;;;;;;5044910;28;20185;-31
2023/07/28 03:53:09;;;;;;;3.50;3.13;;;15.00;99.90;;;;;;5050188;28;20185;-32
2023/07/28 03:55:35;;;;;;;3.23;2.97;;;15.10;99.90;;;;;;5054743;28;20188;-32
2023/07/28 03:58:01;;;;;;;4.77;3.30;;;15.10;99.90;;;;;;5054484;28;20273;-32
2023/07/28 04:00:27;;;;;;;4.90;3.13;;;15.20;99.90;;;;;;5049597;28;20295;-32
2023/07/28 04:02:52;;;;;;;3.80;3.23;;;15.20;99.90;;;;;;5058617;28;20181;-32
2023/07/28 04:05:18;;;;;;;3.50;2.83;;;15.30;99.90;;;;;;5064952;28;20178;-31
2023/07/28 04:07:44;;;;;;;4.77;2.93;;;15.30;99.90;;;;;;5059148;28;20181;-31
2023/07/28 04:10:10;;;;;;;4.53;2.80;;;15.40;99.90;;;;;;5066032;28;20225;-33
2023/07/28 04:12:36;;;;;;;4.03;3.17;;;15.40;99.90;;;;;;5038881;28;20260;-32
2023/07/28 04:15:02;;;;;;;4.33;2.97;;;15.50;99.90;;;;;;5050942;28;20186;-32
2023/07/28 04:17:28;;;;;;;3.93;3.23;;;15.50;99.90;;;;;;5051189;28;20189;-32
2023/07/28 04:19:54;;;;;;;3.80;2.93;;;15.60;99.90;;;;;;5064583;28;20230;-32
2023/07/28 04:22:21;;;;;;;3.33;2.97;;;15.60;99.90;;;;;;5051305;28;20209;-32
2023/07/28 04:24:49;;;;;;;3.27;2.77;;;15.60;99.90;;;;;;5047893;28;20223;-32
2023/07/28 04:27:15;;;;;;;4.07;3.00;;;15.70;99.90;;;;;;5048607;28;20280;-32
2023/07/28 04:29:42;;;;;;;3.63;3.20;;;15.70;99.90;;;;;;5050862;28;20196;-33
2023/07/28 04:32:10;;;;;;;3.30;3.00;;;15.70;99.90;;;;;;5051305;28;20177;-32
2023/07/28 04:34:36;;;;;;;3.30;2.60;;;15.80;99.90;;;;;;5049798;28;20181;-32
2023/07/28 04:37:12;;;;;;;6.63;3.20;;;15.80;99.90;;;;;;5056842;28;20216;-33
2023/07/28 04:39:53;;;;;;;5.20;3.40;;;15.80;99.90;;;;;;5048808;28;20232;-32
2023/07/28 04:42:19;;;;;;;4.60;3.00;;;15.80;99.90;;;;;;5047611;28;20201;-32
2023/07/28 04:44:47;;;;;;;3.50;3.03;;;15.90;99.90;;;;;;5049338;28;20230;-31
2023/07/28 04:47:13;;;;;;;3.50;3.03;;;15.90;99.90;;;;;;5052785;28;20176;-32
2023/07/28 04:49:40;;;;;;;3.20;2.90;;;15.90;99.90;;;;;;5050287;28;20253;-31
2023/07/28 04:52:07;;;;;;;3.37;3.07;;;15.90;99.90;;;;;;5054312;28;20194;-31
2023/07/28 04:54:48;;;;;;;3.57;3.20;;;16.00;99.90;;;;;;5054836;28;20189;-32
2023/07/28 04:57:14;;;;;;;3.83;3.03;;;16.00;99.90;;;;;;5050594;28;20250;-32
2023/07/28 04:59:40;;;;;;;4.07;2.87;;;16.00;99.90;;;;;;5044340;28;20290;-32
2023/07/28 05:02:06;;;;;;;3.03;2.80;;;16.10;99.90;;;;;;5047586;28;20255;-32
2023/07/28 05:04:32;;;;;;;3.13;2.70;;;16.10;99.90;;;;;;5057812;28;20194;-32
2023/07/28 05:06:58;;;;;;;3.20;2.90;;;16.10;99.90;;;;;;5043196;28;20178;-32
2023/07/28 05:09:24;;;;;;;4.83;3.30;;;16.20;99.90;;;;;;5050079;28;20202;-32
2023/07/28 05:11:50;;;;;;;3.40;2.90;;;16.20;99.90;;;;;;5050144;28;20181;-32
2023/07/28 05:14:16;;;;;;;5.90;2.90;;;16.20;99.90;;;;;;5038313;28;20204;-32
2023/07/28 05:16:42;;;;;;;6.00;3.20;;;16.20;99.90;;;;;;5036987;28;20278;-32
2023/07/28 05:19:09;;;;;;;3.73;2.93;;;16.30;99.90;;;;;;5068890;28;20213;-32
2023/07/28 05:21:54;;;;;;;3.57;3.23;;;16.30;99.90;;;;;;5051830;28;20216;-32
2023/07/28 05:24:25;;;;;;;3.90;3.50;;;16.20;99.90;;;;;;5046004;28;20272;-32
2023/07/28 05:26:54;;;;;;;3.80;3.10;;;16.30;99.90;;;;;;5046742;28;20170;-32
2023/07/28 05:29:23;;;;;;;3.67;3.13;;;16.20;99.90;;;;;;5038282;28;20313;-33
2023/07/28 05:31:49;;;;;;;3.40;3.10;;;16.20;99.90;;;;;;5052057;28;20318;-32
2023/07/28 05:34:27;;;;;;;4.27;3.77;;;16.20;99.90;;;;;;5047031;28;20277;-32
2023/07/28 05:36:53;;;;;;;4.80;3.60;;;16.30;99.90;;;;;;5037251;28;20268;-32
2023/07/28 05:39:19;;;;;;;4.13;3.60;;;16.20;99.90;;;;;;5058037;28;20198;-32
2023/07/28 05:41:46;;;;;;;3.97;3.30;;;16.20;99.90;;;;;;5042060;28;20212;-33
2023/07/28 05:44:13;;;;;;;5.60;3.77;;;16.20;99.90;;;;;;5056029;28;20242;-32
2023/07/28 05:46:39;;;;;;;4.93;3.70;;;16.20;99.90;;;;;;5055114;28;20205;-32
2023/07/28 05:49:05;;;;;;;5.00;3.83;;;16.10;99.90;;;;;;5053381;28;20224;-32
2023/07/28 05:51:31;;;;;;;5.60;3.57;;;16.10;99.90;;;;;;5047001;28;20228;-32
2023/07/28 05:53:57;;;;;;;5.13;3.63;;;16.10;99.90;;;;;;5045181;28;20188;-32
2023/07/28 05:56:23;;;;;;;6.03;3.90;;;16.00;99.90;;;;;;5047851;28;20186;-32
2023/07/28 05:58:50;;;;;;;4.07;3.50;;;16.00;99.90;;;;;;5044929;28;20756;-32
2023/07/28 06:01:16;;;;;;;4.77;3.60;;;16.00;99.90;;;;;;5046584;28;20201;-32
2023/07/28 06:04:05;;;;;;;6.93;4.30;;;16.00;99.90;;;;;;5050379;28;20204;-32
2023/07/28 06:06:38;;;;;;;5.13;3.90;;;15.90;99.90;;;;;;5049252;28;20185;-32
2023/07/28 06:09:04;;;;;;;5.43;4.03;;;15.90;99.90;;;;;;5035095;28;20195;-32
2023/07/28 06:11:30;;;;;;;4.90;3.80;;;15.90;99.90;;;;;;5063618;28;20186;-32
2023/07/28 06:13:57;;;;;;;4.50;3.70;;;16.00;99.90;;;;;;5045023;28;20178;-32
2023/07/28 06:16:24;;;;;;;4.20;3.70;;;16.00;99.90;;;;;;5062021;28;20189;-33
2023/07/28 06:18:51;;;;;;;4.70;4.20;;;16.10;99.90;;;;;;5048729;28;20208;-33
2023/07/28 06:21:20;;;;;;;7.13;4.60;;;16.20;99.90;;;;;;5044906;28;20339;-33
2023/07/28 06:23:46;;;;;;;4.10;3.77;;;16.20;99.90;;;;;;5047988;28;20261;-32
2023/07/28 06:26:12;;;;;;;4.07;3.50;;;16.20;99.90;;;;;;5052493;28;20185;-32
2023/07/28 06:28:39;;;;;;;4.77;4.20;;;16.30;99.90;;;;;;5058180;28;20202;-32
2023/07/28 06:31:06;;;;;;;4.17;3.77;;;16.30;99.90;;;;;;5067801;28;20185;-32
2023/07/28 06:33:32;;;;;;;5.23;4.53;;;16.30;99.90;;;;;;5047830;28;20244;-33
2023/07/28 06:35:58;;;;;;;6.15;4.30;;;16.40;99.90;;;;;;5050270;28;20177;-33
2023/07/28 06:38:24;;;;;;;4.30;3.90;;;16.40;99.90;;;;;;5054260;28;20177;-31
2023/07/28 06:40:50;;;;;;;4.33;3.93;;;16.40;99.90;;;;;;5039695;28;20570;-32
2023/07/28 06:43:19;;;;;;;3.93;3.43;;;16.50;99.90;;;;;;5053994;28;20224;-33
2023/07/28 06:45:47;;;;;;;4.60;3.60;;;16.50;99.90;;;;;;5053256;28;20173;-32
2023/07/28 06:48:13;;;;;;;4.33;3.80;;;16.70;99.90;;;;;;5067266;28;20206;-32
2023/07/28 06:50:38;;;;;;;4.05;3.50;;;16.70;99.90;;;;;;5071875;28;20185;-32
2023/07/28 06:53:04;;;;;;;4.80;4.30;;;16.90;99.90;;;;;;5054792;28;20173;-32
2023/07/28 06:55:31;;;;;;;4.90;4.40;;;17.00;99.90;;;;;;5060868;28;20192;-32
2023/07/28 06:57:57;;;;;;;6.43;4.65;;;17.00;99.90;;;;;;5048023;28;20215;-32
2023/07/28 07:00:23;;;;;;;6.45;4.40;;;17.10;99.90;;;;;;5071015;28;20243;-32
2023/07/28 07:02:49;;;;;;;4.88;4.38;;;17.10;99.90;;;;;;5046793;28;20173;-32
2023/07/28 07:05:14;;;;;;;5.28;4.05;;;17.10;99.90;;;;;;5054422;28;20181;-33
2023/07/28 07:07:41;;;;;;;5.35;4.18;;;17.10;99.90;;;;;;5054640;28;20185;-32
2023/07/28 07:10:07;;;;;;;6.30;4.28;;;17.10;99.90;;;;;;5055077;28;20265;-33
2023/07/28 07:12:34;;;;;;;4.45;4.05;;;17.10;99.90;;;;;;5054558;28;20201;-32
2023/07/28 07:15:00;;;;;;;7.03;4.30;;;17.10;99.90;;;;;;5054669;28;20189;-32
2023/07/28 07:17:26;;;;;;;5.30;4.18;;;17.20;99.90;;;;;;5054615;28;20186;-32
2023/07/28 07:19:52;;;;;;;5.53;4.45;;;17.20;99.90;;;;;;5051120;28;20200;-32
2023/07/28 07:22:19;;;;;;;5.20;4.22;;;17.30;99.90;;;;;;5050710;28;20197;-32
2023/07/28 07:24:45;;;;;;;5.68;4.28;;;17.30;99.90;;;;;;5049792;28;20197;-32
2023/07/28 07:27:10;;;;;;;4.47;4.07;;;17.40;99.90;;;;;;5042580;28;20247;-32
2023/07/28 07:29:38;;;;;;;4.72;3.60;;;17.40;99.90;;;;;;5069153;28;20201;-32
2023/07/28 07:32:05;;;;;;;4.72;4.28;;;17.50;99.90;;;;;;5053390;28;20399;-32
2023/07/28 07:34:33;;;;;;;4.20;3.80;;;17.50;99.90;;;;;;5037470;28;20177;-32
2023/07/28 07:36:58;;;;;;;4.05;3.70;;;17.60;99.90;;;;;;5054041;28;20323;-33
2023/07/28 07:39:24;;;;;;;4.30;3.92;;;17.70;99.90;;;;;;5053663;28;20320;-32
2023/07/28 07:41:50;;;;;;;4.30;3.90;;;17.80;99.90;;;;;;5054021;28;20212;-32
2023/07/28 07:44:16;;;;;;;3.97;3.58;;;17.90;99.90;;;;;;5054297;28;20178;-33
2023/07/28 07:46:43;;;;;;;4.95;3.95;;;18.10;99.90;;;;;;5044704;28;20177;-32
2023/07/28 07:49:16;;;;;;;4.07;3.70;;;18.20;99.90;;;;;;5057052;28;20200;-32
2023/07/28 07:51:43;;;;;;;4.00;3.55;;;18.30;99.90;;;;;;5031808;28;20182;-33
2023/07/28 07:54:09;;;;;;;3.80;3.50;;;18.40;99.90;;;;;;5061293;28;20192;-32
2023/07/28 07:56:36;;;;;;;5.00;3.95;;;18.50;99.90;;;;;;5051070;28;20187;-32
2023/07/28 07:59:03;;;;;;;5.07;3.80;;;18.60;99.90;;;;;;5033643;28;20291;-32
2023/07/28 08:01:28;;;;;;;4.75;3.85;;;18.70;99.90;;;;;;5051976;28;20248;-32
2023/07/28 08:04:00;;;;;;;4.05;3.67;;;18.90;99.90;;;;;;5047650;28;20178;-32
2023/07/28 08:06:28;;;;;;;4.07;3.67;;;19.00;99.90;;;;;;5033217;28;20182;-33
2023/07/28 08:08:56;;;;;;;4.63;3.40;;;19.10;99.90;;;;;;5046817;28;20267;-32
2023/07/28 08:11:23;;;;;;;4.30;3.90;;;19.30;99.90;;;;;;5033463;28;20279;-32
2023/07/28 08:13:50;;;;;;;3.90;3.45;;;19.50;99.90;;;;;;5057946;28;20190;-32
2023/07/28 08:16:16;;;;;;;3.58;3.28;;;19.70;99.90;;;;;;5055069;28;20204;-33
2023/07/28 08:18:42;;;;;;;5.18;2.90;;;19.90;99.90;;;;;;5053443;28;20300;-32
2023/07/28 08:21:07;;;;;;;4.53;3.40;;;20.00;99.90;;;;;;5036054;28;20197;-32
2023/07/28 08:23:33;;;;;;;3.83;2.70;;;20.10;99.90;;;;;;5035678;28;20254;-33
2023/07/28 08:26:01;;;;;;;3.58;2.90;;;20.20;99.90;;;;;;5044384;28;20282;-32
2023/07/28 08:28:30;;;;;;;6.35;2.75;;;20.40;99.90;;;;;;5047165;28;20190;-32
2023/07/28 08:30:57;;;;;;;2.88;2.67;;;20.50;99.90;;;;;;5048616;28;20186;-32
2023/07/28 08:33:24;;;;;;;3.33;2.72;;;20.70;99.90;;;;;;5029379;28;20178;-33
2023/07/28 08:35:51;;;;;;;3.35;3.03;;;20.80;99.90;;;;;;5046405;28;20221;-33
2023/07/28 08:38:17;;;;;;;4.10;2.67;;;20.90;99.90;;;;;;5046999;28;20182;-33
2023/07/28 08:40:47;;;;;;;3.20;2.90;;;21.10;99.90;;;;;;5030362;28;20214;-33
2023/07/28 08:43:13;;;;;;;3.38;2.92;;;21.20;99.90;;;;;;5047482;28;20185;-33
2023/07/28 08:45:42;;;;;;;3.80;2.55;;;21.40;99.90;;;;;;5048398;28;20312;-34
2023/07/28 08:48:08;;;;;;;3.13;2.80;;;21.70;99.90;;;;;;5030890;28;20208;-32
2023/07/28 08:50:34;;;;;;;4.28;2.78;;;22.00;99.90;;;;;;5034253;28;20226;-32
2023/07/28 08:53:00;;;;;;;2.60;2.38;;;22.30;99.90;;;;;;5035103;28;20267;-33
2023/07/28 08:55:25;;;;;;;3.90;2.80;;;22.60;99.90;;;;;;5031517;28;20190;-34
2023/07/28 08:57:51;;;;;;;2.83;2.63;;;22.90;99.90;;;;;;5050593;28;20200;-33
2023/07/28 09:00:17;;;;;;;2.80;2.45;;;23.10;99.90;;;;;;5032526;28;20201;-33
2023/07/28 09:02:43;;;;;;;7.43;2.75;;;23.40;99.90;;;;;;5030484;28;20179;-33
2023/07/28 09:05:20;;;;;;;2.78;2.42;;;23.60;99.90;;;;;;5050515;28;20197;-33
2023/07/28 09:07:47;;;;;;;4.78;2.72;;;23.60;99.90;;;;;;5031951;28;20182;-33
2023/07/28 09:10:13;;;;;;;5.57;3.00;;;23.60;99.90;;;;;;5033945;28;20681;-32
2023/07/28 09:12:48;;;;;;;2.75;2.40;;;23.60;99.90;;;;;;5048122;28;20174;-33
2023/07/28 09:15:16;;;;;;;6.95;2.80;;;23.50;99.90;;;;;;5030635;28;20193;-33
2023/07/28 09:17:46;;;;;;;3.30;2.70;;;23.50;99.90;;;;;;5048933;28;20218;-32
2023/07/28 09:20:16;;;;;;;2.38;2.17;;;23.30;99.90;;;;;;5033599;28;20190;-33
2023/07/28 09:22:43;;;;;;;2.40;2.20;;;23.20;99.90;;;;;;5029629;28;20193;-33
2023/07/28 09:25:14;;;;;;;3.10;2.80;;;23.30;99.90;;;;;;5049154;28;20277;-33
2023/07/28 09:27:41;;;;;;;3.53;2.35;;;23.50;99.90;;;;;;5031817;28;20185;-33
2023/07/28 09:30:07;;;;;;;2.50;2.30;;;23.60;99.90;;;;;;5031643;28;20666;-33
2023/07/28 09:32:35;;;;;;;2.60;2.40;;;23.70;99.90;;;;;;5033155;28;20256;-32
2023/07/28 09:35:12;;;;;;;3.35;2.83;;;23.80;99.90;;;;;;5032284;28;20178;-32
2023/07/28 09:37:40;;;;;;;2.47;2.28;;;23.80;99.90;;;;;;5038941;28;20261;-32
2023/07/28 09:40:13;;;;;;;2.55;2.33;;;23.70;99.90;;;;;;5040455;28;20214;-33
2023/07/28 09:42:41;;;;;;;3.83;2.40;;;23.60;99.90;;;;;;5055204;28;20326;-33
2023/07/28 09:45:09;;;;;;;3.38;2.50;;;23.70;99.90;;;;;;5066782;28;20645;-32
2023/07/28 09:47:36;;;;;;;2.70;2.50;;;23.80;99.90;;;;;;5033479;28;20194;-32
2023/07/28 09:50:08;;;;;;;3.75;2.50;;;23.90;99.90;;;;;;5043362;28;20209;-33
2023/07/28 09:52:41;;;;;;;2.40;2.10;;;24.00;99.90;;;;;;5046571;28;20265;-32
2023/07/28 09:55:10;;;;;;;4.22;2.80;;;24.00;99.90;;;;;;5047430;28;20186;-32
2023/07/28 09:57:40;;;;;;;2.85;2.42;;;24.10;99.90;;;;;;5034549;28;20186;-32
2023/07/28 10:00:10;;;;;;;2.35;2.13;;;24.40;99.90;;;;;;5034298;28;20301;-33
2023/07/28 10:02:38;;;;;;;3.00;2.25;;;24.50;99.90;;;;;;5051950;28;20209;-33
2023/07/28 10:05:06;;;;;;;3.05;2.33;;;24.60;99.90;;;;;;5051212;28;20187;-33
2023/07/28 10:07:38;;;;;;;2.50;2.30;;;24.70;99.90;;;;;;5051637;28;20181;-33
2023/07/28 10:10:09;;;;;;;2.63;2.40;;;24.70;99.90;;;;;;5033794;28;20306;-32
2023/07/28 10:12:46;;;;;;;3.17;2.58;;;24.60;99.90;;;;;;5048294;28;20189;-33
2023/07/28 10:15:17;;;;;;;2.70;2.50;;;24.60;99.90;;;;;;5035141;28;20284;-32
2023/07/28 10:17:47;;;;;;;2.70;2.50;;;24.50;99.90;;;;;;5033639;28;20187;-33
2023/07/28 10:20:33;;;;;;;2.55;2.35;;;24.50;99.90;;;;;;5034436;28;20387;-33
2023/07/28 10:23:11;;;;;;;3.17;2.78;;;24.50;99.90;;;;;;5033853;28;20213;-33
2023/07/28 10:25:39;;;;;;;3.60;2.70;;;24.60;99.90;;;;;;5048466;28;20177;-33
2023/07/28 10:28:06;;;;;;;2.70;2.50;;;24.50;99.90;;;;;;5046133;28;20181;-33
2023/07/28 10:30:38;;;;;;;2.50;2.30;;;24.50;99.90;;;;;;5033165;28;20210;-33
2023/07/28 10:33:04;;;;;;;3.80;2.55;;;24.40;99.90;;;;;;5043713;28;20186;-33
2023/07/28 10:35:32;;;;;;;7.05;2.60;;;24.30;99.90;;;;;;5035891;28;20182;-33
2023/07/28 10:38:31;;;;;;;7.68;2.90;;;24.30;99.90;;;;;;5053406;28;20182;-32
2023/07/28 10:41:13;;;;;;;2.90;2.38;;;24.20;99.90;;;;;;5053225;28;20232;-32
2023/07/28 10:43:39;;;;;;;2.58;2.38;;;24.20;99.90;;;;;;5035013;28;20220;-33
2023/07/28 10:46:10;;;;;;;2.50;2.30;;;24.20;99.90;;;;;;5050086;28;20194;-32
2023/07/28 10:48:40;;;;;;;2.53;2.33;;;24.20;99.90;;;;;;5041655;28;20211;-32
2023/07/28 10:51:07;;;;;;;2.90;2.58;;;24.30;99.90;;;;;;5035191;28;20185;-33
2023/07/28 10:53:34;;;;;;;3.05;2.63;;;24.40;99.90;;;;;;5051489;28;20339;-31
2023/07/28 10:56:03;;;;;;;4.10;2.42;;;24.50;99.90;;;;;;5051507;28;20734;-31
2023/07/28 10:58:35;;;;;;;2.88;2.28;;;24.60;99.90;;;;;;5051738;28;20182;-33
2023/07/28 11:01:02;;;;;;;2.78;2.47;;;24.40;99.90;;;;;;5054396;28;20247;-32
2023/07/28 11:03:30;;;;;;;4.35;2.58;;;24.30;99.90;;;;;;5071494;28;20248;-33
2023/07/28 11:05:57;;;;;;;3.88;2.30;;;24.20;99.90;;;;;;5054060;28;20184;-32
2023/07/28 11:08:26;;;;;;;3.42;2.47;;;24.00;99.90;;;;;;5071503;28;20247;-32
2023/07/28 11:10:54;;;;;;;4.00;2.40;;;23.80;99.90;;;;;;5045043;28;20189;-32
2023/07/28 11:13:22;;;;;;;6.30;2.80;;;23.50;99.90;;;;;;5041857;28;20182;-32
2023/07/28 11:15:49;;;;;;;3.50;2.55;;;23.30;99.90;;;;;;5068639;28;20208;-33
2023/07/28 11:18:17;;;;;;;2.70;2.50;;;23.20;99.90;;;;;;5058099;28;20244;-32
2023/07/28 11:20:44;;;;;;;3.75;2.35;;;23.00;99.90;;;;;;5051373;28;20293;-33
2023/07/28 11:23:14;;;;;;;2.63;2.42;;;22.90;99.90;;;;;;5035021;28;20182;-32
2023/07/28 11:25:41;;;;;;;3.05;2.38;;;22.90;99.90;;;;;;5046447;28;20187;-33
2023/07/28 11:28:08;;;;;;;3.17;2.88;;;22.90;99.90;;;;;;5038152;28;20182;-32
2023/07/28 11:30:38;;;;;;;2.90;2.70;;;22.90;99.90;;;;;;5070715;28;20204;-32
2023/07/28 11:33:08;;;;;;;2.67;2.47;;;22.90;99.90;;;;;;5039079;28;20208;-33
2023/07/28 11:35:35;;;;;;;3.33;3.03;;;22.90;99.90;;;;;;5058089;28;20169;-32
2023/07/28 11:38:01;;;;;;;3.08;2.78;;;22.90;99.90;;;;;;5059070;28;20174;-31
2023/07/28 11:40:27;;;;;;;2.92;2.60;;;22.90;99.90;;;;;;5039703;28;20233;-33
2023/07/28 11:42:55;;;;;;;4.63;2.88;;;22.90;99.90;;;;;;5048127;28;20205;-32
2023/07/28 11:45:22;;;;;;;2.60;2.40;;;23.00;99.90;;;;;;5044679;28;20181;-33
2023/07/28 11:47:55;;;;;;;4.32;2.70;;;23.00;99.90;;;;;;5050969;28;20181;-33
2023/07/28 11:50:29;;;;;;;3.13;2.53;;;23.00;99.90;;;;;;5042000;28;20202;-32
2023/07/28 11:52:57;;;;;;;4.03;2.67;;;23.00;99.90;;;;;;5039757;28;20182;-32
2023/07/28 11:55:23;;;;;;;3.05;2.80;;;23.20;99.90;;;;;;5053608;28;20190;-33
2023/07/28 11:57:51;;;;;;;2.60;2.40;;;23.40;99.90;;;;;;5034028;28;20261;-33
2023/07/28 12:00:17;;;;;;;2.92;2.72;;;23.60;99.90;;;;;;5042046;28;20206;-33
2023/07/28 12:02:44;;;;;;;3.47;2.25;;;23.70;99.90;;;;;;5049822;28;20219;-33
2023/07/28 12:05:16;;;;;;;2.80;2.60;;;23.90;99.90;;;;;;5058366;28;20174;-33
2023/07/28 12:07:48;;;;;;;2.85;2.47;;;24.10;99.90;;;;;;5050269;28;20186;-32
2023/07/28 12:10:15;;;;;;;3.22;2.92;;;24.20;99.90;;;;;;5051388;28;20201;-33
2023/07/28 12:12:46;;;;;;;3.75;2.58;;;24.30;99.90;;;;;;5049879;28;20181;-34
2023/07/28 12:15:41;;;;;;;2.58;2.28;;;24.40;99.90;;;;;;5050382;28;20193;-33
2023/07/28 12:18:08;;;;;;;3.55;2.78;;;24.50;99.90;;;;;;5032588;28;20321;-32
2023/07/28 12:20:35;;;;;;;3.10;2.72;;;24.50;99.90;;;;;;5049859;28;20234;-32
2023/07/28 12:23:01;;;;;;;2.97;2.67;;;24.40;99.90;;;;;;5051483;28;20184;-32
2023/07/28 12:25:27;;;;;;;2.70;2.50;;;24.30;99.90;;;;;;5053369;28;20267;-33
2023/07/28 12:27:53;;;;;;;3.35;2.58;;;24.30;99.90;;;;;;5038295;28;20186;-33
2023/07/28 12:30:19;;;;;;;4.15;2.72;;;24.10;99.90;;;;;;5062402;28;20191;-33
2023/07/28 12:32:46;;;;;;;2.70;2.50;;;24.10;99.90;;;;;;5053356;28;20189;-32
2023/07/28 12:35:11;;;;;;;4.65;3.17;;;24.10;99.90;;;;;;5053037;28;20189;-33
2023/07/28 12:37:37;;;;;;;3.08;2.78;;;24.00;99.90;;;;;;5052866;28;20177;-33
2023/07/28 12:40:05;;;;;;;2.80;2.60;;;23.90;99.90;;;;;;5069373;28;20211;-32
2023/07/28 12:42:31;;;;;;;2.90;2.60;;;23.90;99.90;;;;;;5069977;28;20205;-33
2023/07/28 12:44:57;;;;;;;3.17;2.47;;;23.70;99.90;;;;;;5053087;28;20243;-33
2023/07/28 12:47:22;;;;;;;3.10;2.80;;;23.70;99.90;;;;;;5047055;28;20192;-33
2023/07/28 12:49:48;;;;;;;3.03;2.70;;;23.60;99.90;;;;;;5033079;28;20292;-33
2023/07/28 12:52:15;;;;;;;2.90;2.60;;;23.60;99.90;;;;;;5033409;28;20181;-33